GLTA4: Cossatot River Below Gillham Dam Nr Gillham, Ark

Data processed at Mon Apr 20 23:26:37 2015 Central Daylight Time


All information presented herein is the property of the government of the United States of America and may be revised or deleted at any time without prior notice.
Dissemination of this information without the expressed written consent of the Public Affairs Office, Tulsa District U.S. Army Corps of Engineers is strictly prohibited.
These data are gathered electronically and, as presented, have not undergone any form of quality control. These data are not guaranteed to be valid or correct.
Go to home page.
Go to station list.
Go to station map.

Upstream stations:

Downstream station: Previous Day
Next Day
Current Day

Display graphics.
Display DCP transmissions.


    
    SHEF ID:       GLTA4     Cossatot River Below Gillham Dam Nr Gillham, Ark
    STATION TYPE:  STREAM GAGE
    Regulation Limits:  Stage = -901.00, Flow =    -901
    
                  TW-ELEV   RELEASE  WTR-TEMP   VOLTAGE
                     FEET       CFS     DEG-F     VOLTS
                     GOES      GOES      GOES      GOES
       (Cen)
    04/20 01:00    429.20       794     35.50     12.80
    04/20 02:00    428.99       683     27.10     12.80
    04/20 03:00    429.13       757     32.00     12.80
    04/20 04:00    429.01       693     33.90     12.70
    04/20 05:00    429.02       699     27.50     12.60
    04/20 06:00    428.98       678     26.10     12.60
    04/20 07:00    429.07       725     24.40     12.60
    04/20 08:00    429.13       757     26.70     13.60
    04/20 09:00    429.07       725     30.00     14.30
    04/20 10:00    429.20       794     27.70     13.80
    04/20 11:00    429.02       699     29.30     14.30
    04/20 12:00    429.08       730     38.30     13.70
    04/20 13:00    429.11       746     64.20     13.50
    04/20 14:00    429.04       709     73.20     13.20
    04/20 15:00    428.86       621     65.80     13.50
    04/20 16:00    429.04       709     36.00     14.30
    04/20 17:00    429.09       736     28.40     13.20
    04/20 18:00    428.88       631     30.00     13.00
    04/20 19:00    429.10       741     35.40     12.90
    04/20 20:00    429.16       773     37.70     12.90
    04/20 21:00    429.08       730     38.00     12.80
    04/20 22:00    429.22       805     31.30     12.80
    04/20 23:00    429.03       704     31.90     12.80
    04/21 00:00      ----      ----      ----      ----